Eko 2 — SY9957 — position and weather

sailwx.info

Track history (hours):
 
Tides and Currents Weather Stations Pressure Air Temp Water Temp Dewpoint Dewpoint Depression Visibility Wind Speed Wind Dir Waves Ship Positions

Eko 2

Last reported at 2015-Apr-27 08:31 UTC. Time now 2015-Apr-27 09:12 UTC.
Position N 36°23' E 025°26'.

Length 89 m; draft 4.6 m.

Type: Ship (hazmat cat A). MMSI: 240827000.

Date/timePositionNaut miles runAvg speedWind from/ knotsBaromVisibWave heightAir tempDewpointWater temp
2015-Apr-27 08:31N 36°23' E 025°26'0 0.0
2015-Apr-27 07:34N 36°23' E 025°26'0 0.0
2015-Apr-27 06:33N 36°23' E 025°26'0 0.0
2015-Apr-27 05:33N 36°23' E 025°26'0 0.0
2015-Apr-27 04:33N 36°23' E 025°26'0 0.0
2015-Apr-27 03:30N 36°23' E 025°26'0 0.0
2015-Apr-27 02:33N 36°23' E 025°26'0 0.0
2015-Apr-27 01:33N 36°23' E 025°26'0 0.0
2015-Apr-27 00:33N 36°23' E 025°26'0 0.0
2015-Apr-26 23:31N 36°23' E 025°26'0 0.0
2015-Apr-26 22:33N 36°23' E 025°26'0 0.0
2015-Apr-26 21:34N 36°23' E 025°26'0 0.0
2015-Apr-26 20:34N 36°23' E 025°26'0 0.0
2015-Apr-26 19:24N 36°23' E 025°26'0 0.0
2015-Apr-26 18:33N 36°23' E 025°26'0 0.0
2015-Apr-26 17:31N 36°23' E 025°26'0 0.0
2015-Apr-26 16:24N 36°23' E 025°26'0 0.0
2015-Apr-26 15:16N 36°23' E 025°26'0 0.0
2015-Apr-26 14:30N 36°23' E 025°26'0 0.0
2015-Apr-26 13:31N 36°23' E 025°26'0 0.0
2015-Apr-26 12:31N 36°23' E 025°26'0 0.0
2015-Apr-26 11:30N 36°23' E 025°26'0 0.0
2015-Apr-26 10:27N 36°23' E 025°26'0 0.0
2015-Apr-26 09:33N 36°23' E 025°26'0 0.0
2015-Apr-26 08:30N 36°23' E 025°26'0 0.0
2015-Apr-26 07:33N 36°23' E 025°26'0 0.0
2015-Apr-26 06:27N 36°23' E 025°26'0 0.0
2015-Apr-26 05:30N 36°23' E 025°26'0 0.5
2015-Apr-26 04:33N 36°23' E 025°25'9 7.9
2015-Apr-26 03:25N 36°31' E 025°19'38 7.5
2015-Apr-25 22:21N 37°05' E 024°58'7 9.0
2015-Apr-25 21:33N 37°12' E 024°59'9 9.0
2015-Apr-25 20:33N 37°21' E 025°00'6 5.9
2015-Apr-25 19:33N 37°26' E 024°56'0 0.0
2015-Apr-25 18:33N 37°26' E 024°56'0 0.0
2015-Apr-25 17:33N 37°26' E 024°56'0 0.0
2015-Apr-25 16:33N 37°26' E 024°56'0 0.0
2015-Apr-25 15:33N 37°26' E 024°56'0 0.0
2015-Apr-25 14:33N 37°26' E 024°56'0 0.0
2015-Apr-25 13:33N 37°26' E 024°56'0 0.0
2015-Apr-25 12:33N 37°26' E 024°56'0 0.0
2015-Apr-25 11:33N 37°26' E 024°56'0 0.0
2015-Apr-25 10:33N 37°26' E 024°56'0 0.0
2015-Apr-25 09:27N 37°26' E 024°56'0 0.0
2015-Apr-25 08:33N 37°26' E 024°56'0 0.0
2015-Apr-25 07:33N 37°26' E 024°56'0 0.0
2015-Apr-25 06:27N 37°26' E 024°56'0 0.0
2015-Apr-25 05:33N 37°26' E 024°56'0 0.0
2015-Apr-25 04:33N 37°26' E 024°56'0 0.0
2015-Apr-25 03:33N 37°26' E 024°56'0 0.0
2015-Apr-25 02:33N 37°26' E 024°56'0 0.0
2015-Apr-25 01:33N 37°26' E 024°56'0 0.0
2015-Apr-25 00:33N 37°26' E 024°56'0 0.0
2015-Apr-24 23:33N 37°26' E 024°56'0 0.0
2015-Apr-24 22:33N 37°26' E 024°56'0 0.0
2015-Apr-24 21:33N 37°26' E 024°56'0 0.0
2015-Apr-24 20:33N 37°26' E 024°56'0 0.0
2015-Apr-24 19:33N 37°26' E 024°56'0 0.0
2015-Apr-24 18:33N 37°26' E 024°56'0 0.0
2015-Apr-24 17:33N 37°26' E 024°56'0 0.1
2015-Apr-24 16:33N 37°26' E 024°56'6 6.5
2015-Apr-24 15:33N 37°32' E 024°55'54 2.1
2015-Apr-23 13:14N 37°39' E 023°47'6 8.6
2015-Apr-23 12:33N 37°42' E 023°41'10 9.7
2015-Apr-23 11:33N 37°51' E 023°36'9 7.9
2015-Apr-23 10:28N 37°59' E 023°33'2 1.7
2015-Apr-23 09:07N 38°02' E 023°32'0 0.0
2015-Apr-23 08:28N 38°02' E 023°32'0 0.1
2015-Apr-23 07:22N 38°01' E 023°32'0 0.0
2015-Apr-23 06:28N 38°01' E 023°32'0 0.0
2015-Apr-23 05:33N 38°01' E 023°32'0 0.0
2015-Apr-23 04:32N 38°01' E 023°32'0 0.0
2015-Apr-23 03:31N 38°01' E 023°32'0 0.0
2015-Apr-23 02:33N 38°01' E 023°32'3 0.3
2015-Apr-22 17:05N 38°02' E 023°36'2 4.5
2015-Apr-22 16:33N 38°01' E 023°33'1 0.8
2015-Apr-22 15:17N 38°02' E 023°33'0 0.0
2015-Apr-22 07:33N 38°02' E 023°33'5 5.5
2015-Apr-22 06:33N 37°57' E 023°35'2 1.7
2015-Apr-22 05:33N 37°55' E 023°36'9 8.7
2015-Apr-22 04:33N 37°48' E 023°41'5210.3
2015-Apr-21 23:28N 37°32' E 024°44'1011.0
2015-Apr-21 22:33N 37°32' E 024°57'1111.0
2015-Apr-21 21:33N 37°29' E 025°10'8 7.3
2015-Apr-21 20:32N 37°28' E 025°20'0 0.0
2015-Apr-21 19:26N 37°28' E 025°20'0 0.0
2015-Apr-21 18:29N 37°28' E 025°20'0 0.0
2015-Apr-21 17:23N 37°28' E 025°20'0 0.0
2015-Apr-21 16:32N 37°28' E 025°20'0 0.0
2015-Apr-21 15:32N 37°28' E 025°20'0 0.0
2015-Apr-21 14:32N 37°28' E 025°20'0 0.0
2015-Apr-21 13:32N 37°28' E 025°20'0 0.0
2015-Apr-21 12:32N 37°28' E 025°20'1 0.9
2015-Apr-21 11:33N 37°27' E 025°19'0 0.0
2015-Apr-21 10:33N 37°27' E 025°19'1 1.4
2015-Apr-21 09:33N 37°27' E 025°17'9 9.1
2015-Apr-21 08:33N 37°17' E 025°18'9 9.5
2015-Apr-21 07:33N 37°08' E 025°19'10 9.4
2015-Apr-21 06:31N 36°58' E 025°16'34 1.1
2015-Apr-19 22:32N 36°26' E 025°02'1010.0
2015-Apr-19 21:30N 36°23' E 025°15'9 7.4
2015-Apr-19 20:17N 36°23' E 025°26'0 0.0
2015-Apr-19 19:05N 36°23' E 025°26'0 0.0
2015-Apr-19 17:23N 36°23' E 025°26'0 0.0
2015-Apr-19 16:29N 36°23' E 025°26'0 0.0
2015-Apr-19 15:23N 36°23' E 025°26'0 0.0
2015-Apr-19 14:23N 36°23' E 025°26'0 0.0
2015-Apr-19 13:23N 36°23' E 025°26'0 0.0
2015-Apr-19 12:32N 36°23' E 025°26'0 0.0
2015-Apr-19 11:29N 36°23' E 025°26'0 0.0
2015-Apr-19 10:29N 36°23' E 025°26'0 0.0
2015-Apr-19 09:32N 36°23' E 025°26'0 0.0
2015-Apr-19 08:32N 36°23' E 025°26'0 0.0
2015-Apr-19 07:32N 36°23' E 025°26'0 0.0
2015-Apr-19 06:29N 36°23' E 025°26'0 0.0
2015-Apr-19 05:29N 36°23' E 025°26'0 0.0
2015-Apr-19 04:29N 36°23' E 025°26'0 0.0
2015-Apr-19 02:29N 36°23' E 025°26'0 0.0
2015-Apr-19 01:29N 36°23' E 025°26'0 0.0
2015-Apr-19 00:26N 36°23' E 025°26'0 0.0
2015-Apr-18 23:29N 36°23' E 025°26'0 0.0
2015-Apr-18 22:29N 36°23' E 025°26'0 0.0
2015-Apr-18 21:20N 36°23' E 025°26'0 0.0
2015-Apr-18 20:23N 36°23' E 025°26'0 0.0
2015-Apr-18 19:29N 36°23' E 025°26'0 0.0
2015-Apr-18 18:32N 36°23' E 025°26'0 0.0
2015-Apr-18 17:29N 36°23' E 025°26'0 0.0
2015-Apr-18 16:17N 36°23' E 025°26'0 0.0
2015-Apr-18 15:29N 36°23' E 025°26'0 0.0
2015-Apr-18 14:29N 36°23' E 025°26'0 0.0
2015-Apr-18 13:29N 36°23' E 025°26'0 0.0
2015-Apr-18 12:29N 36°23' E 025°26'0 0.0
2015-Apr-18 11:29N 36°23' E 025°26'1 1.2
2015-Apr-18 10:33N 36°24' E 025°25'8 7.3
2015-Apr-18 09:30N 36°32' E 025°24'9 8.9
2015-Apr-18 08:31N 36°38' E 025°31'8 8.8
2015-Apr-18 07:33N 36°45' E 025°38'8 8.3
2015-Apr-18 06:33N 36°50' E 025°46'3 1.1
2015-Apr-18 03:15N 36°50' E 025°51'2 3.4
2015-Apr-18 02:33N 36°52' E 025°51'9 8.9
2015-Apr-18 01:32N 36°57' E 026°00'  
Track history (hours):
 
Tides and Currents Weather Stations Pressure Air Temp Water Temp Dewpoint Dewpoint Depression Visibility Wind Speed Wind Dir Waves Ship Positions

Eko 2

Last reported at 2015-Apr-27 08:31 UTC. Time now 2015-Apr-27 09:12 UTC.
Position N 36°23' E 025°26'.

Length 89 m; draft 4.6 m.

Type: Ship (hazmat cat A). MMSI: 240827000.

Date/timePositionNaut miles runAvg speedWind from/ knotsBaromVisibWave heightAir tempDewpointWater temp
2015-Apr-27 08:31N 36°23' E 025°26'0 0.0
2015-Apr-27 07:34N 36°23' E 025°26'0 0.0
2015-Apr-27 06:33N 36°23' E 025°26'0 0.0
2015-Apr-27 05:33N 36°23' E 025°26'0 0.0
2015-Apr-27 04:33N 36°23' E 025°26'0 0.0
2015-Apr-27 03:30N 36°23' E 025°26'0 0.0
2015-Apr-27 02:33N 36°23' E 025°26'0 0.0
2015-Apr-27 01:33N 36°23' E 025°26'0 0.0
2015-Apr-27 00:33N 36°23' E 025°26'0 0.0
2015-Apr-26 23:31N 36°23' E 025°26'0 0.0
2015-Apr-26 22:33N 36°23' E 025°26'0 0.0
2015-Apr-26 21:34N 36°23' E 025°26'0 0.0
2015-Apr-26 20:34N 36°23' E 025°26'0 0.0
2015-Apr-26 19:24N 36°23' E 025°26'0 0.0
2015-Apr-26 18:33N 36°23' E 025°26'0 0.0
2015-Apr-26 17:31N 36°23' E 025°26'0 0.0
2015-Apr-26 16:24N 36°23' E 025°26'0 0.0
2015-Apr-26 15:16N 36°23' E 025°26'0 0.0
2015-Apr-26 14:30N 36°23' E 025°26'0 0.0
2015-Apr-26 13:31N 36°23' E 025°26'0 0.0
2015-Apr-26 12:31N 36°23' E 025°26'0 0.0
2015-Apr-26 11:30N 36°23' E 025°26'0 0.0
2015-Apr-26 10:27N 36°23' E 025°26'0 0.0
2015-Apr-26 09:33N 36°23' E 025°26'0 0.0
2015-Apr-26 08:30N 36°23' E 025°26'0 0.0
2015-Apr-26 07:33N 36°23' E 025°26'0 0.0
2015-Apr-26 06:27N 36°23' E 025°26'0 0.0
2015-Apr-26 05:30N 36°23' E 025°26'0 0.5
2015-Apr-26 04:33N 36°23' E 025°25'9 7.9
2015-Apr-26 03:25N 36°31' E 025°19'38 7.5
2015-Apr-25 22:21N 37°05' E 024°58'7 9.0
2015-Apr-25 21:33N 37°12' E 024°59'9 9.0
2015-Apr-25 20:33N 37°21' E 025°00'6 5.9
2015-Apr-25 19:33N 37°26' E 024°56'0 0.0
2015-Apr-25 18:33N 37°26' E 024°56'0 0.0
2015-Apr-25 17:33N 37°26' E 024°56'0 0.0
2015-Apr-25 16:33N 37°26' E 024°56'0 0.0
2015-Apr-25 15:33N 37°26' E 024°56'0 0.0
2015-Apr-25 14:33N 37°26' E 024°56'0 0.0
2015-Apr-25 13:33N 37°26' E 024°56'0 0.0
2015-Apr-25 12:33N 37°26' E 024°56'0 0.0
2015-Apr-25 11:33N 37°26' E 024°56'0 0.0
2015-Apr-25 10:33N 37°26' E 024°56'0 0.0
2015-Apr-25 09:27N 37°26' E 024°56'0 0.0
2015-Apr-25 08:33N 37°26' E 024°56'0 0.0
2015-Apr-25 07:33N 37°26' E 024°56'0 0.0
2015-Apr-25 06:27N 37°26' E 024°56'0 0.0
2015-Apr-25 05:33N 37°26' E 024°56'0 0.0
2015-Apr-25 04:33N 37°26' E 024°56'0 0.0
2015-Apr-25 03:33N 37°26' E 024°56'0 0.0
2015-Apr-25 02:33N 37°26' E 024°56'0 0.0
2015-Apr-25 01:33N 37°26' E 024°56'0 0.0
2015-Apr-25 00:33N 37°26' E 024°56'0 0.0
2015-Apr-24 23:33N 37°26' E 024°56'0 0.0
2015-Apr-24 22:33N 37°26' E 024°56'0 0.0
2015-Apr-24 21:33N 37°26' E 024°56'0 0.0
2015-Apr-24 20:33N 37°26' E 024°56'0 0.0
2015-Apr-24 19:33N 37°26' E 024°56'0 0.0
2015-Apr-24 18:33N 37°26' E 024°56'0 0.0
2015-Apr-24 17:33N 37°26' E 024°56'0 0.1
2015-Apr-24 16:33N 37°26' E 024°56'6 6.5
2015-Apr-24 15:33N 37°32' E 024°55'54 2.1
2015-Apr-23 13:14N 37°39' E 023°47'6 8.6
2015-Apr-23 12:33N 37°42' E 023°41'10 9.7
2015-Apr-23 11:33N 37°51' E 023°36'9 7.9
2015-Apr-23 10:28N 37°59' E 023°33'2 1.7
2015-Apr-23 09:07N 38°02' E 023°32'0 0.0
2015-Apr-23 08:28N 38°02' E 023°32'0 0.1
2015-Apr-23 07:22N 38°01' E 023°32'0 0.0
2015-Apr-23 06:28N 38°01' E 023°32'0 0.0
2015-Apr-23 05:33N 38°01' E 023°32'0 0.0
2015-Apr-23 04:32N 38°01' E 023°32'0 0.0
2015-Apr-23 03:31N 38°01' E 023°32'0 0.0
2015-Apr-23 02:33N 38°01' E 023°32'3 0.3
2015-Apr-22 17:05N 38°02' E 023°36'2 4.5
2015-Apr-22 16:33N 38°01' E 023°33'1 0.8
2015-Apr-22 15:17N 38°02' E 023°33'0 0.0
2015-Apr-22 07:33N 38°02' E 023°33'5 5.5
2015-Apr-22 06:33N 37°57' E 023°35'2 1.7
2015-Apr-22 05:33N 37°55' E 023°36'9 8.7
2015-Apr-22 04:33N 37°48' E 023°41'5210.3
2015-Apr-21 23:28N 37°32' E 024°44'1011.0
2015-Apr-21 22:33N 37°32' E 024°57'1111.0
2015-Apr-21 21:33N 37°29' E 025°10'8 7.3
2015-Apr-21 20:32N 37°28' E 025°20'0 0.0
2015-Apr-21 19:26N 37°28' E 025°20'0 0.0
2015-Apr-21 18:29N 37°28' E 025°20'0 0.0
2015-Apr-21 17:23N 37°28' E 025°20'0 0.0
2015-Apr-21 16:32N 37°28' E 025°20'0 0.0
2015-Apr-21 15:32N 37°28' E 025°20'0 0.0
2015-Apr-21 14:32N 37°28' E 025°20'0 0.0
2015-Apr-21 13:32N 37°28' E 025°20'0 0.0
2015-Apr-21 12:32N 37°28' E 025°20'1 0.9
2015-Apr-21 11:33N 37°27' E 025°19'0 0.0
2015-Apr-21 10:33N 37°27' E 025°19'1 1.4
2015-Apr-21 09:33N 37°27' E 025°17'9 9.1
2015-Apr-21 08:33N 37°17' E 025°18'9 9.5
2015-Apr-21 07:33N 37°08' E 025°19'10 9.4
2015-Apr-21 06:31N 36°58' E 025°16'34 1.1
2015-Apr-19 22:32N 36°26' E 025°02'1010.0
2015-Apr-19 21:30N 36°23' E 025°15'9 7.4
2015-Apr-19 20:17N 36°23' E 025°26'0 0.0
2015-Apr-19 19:05N 36°23' E 025°26'0 0.0
2015-Apr-19 17:23N 36°23' E 025°26'0 0.0
2015-Apr-19 16:29N 36°23' E 025°26'0 0.0
2015-Apr-19 15:23N 36°23' E 025°26'0 0.0
2015-Apr-19 14:23N 36°23' E 025°26'0 0.0
2015-Apr-19 13:23N 36°23' E 025°26'0 0.0
2015-Apr-19 12:32N 36°23' E 025°26'0 0.0
2015-Apr-19 11:29N 36°23' E 025°26'0 0.0
2015-Apr-19 10:29N 36°23' E 025°26'0 0.0
2015-Apr-19 09:32N 36°23' E 025°26'0 0.0
2015-Apr-19 08:32N 36°23' E 025°26'0 0.0
2015-Apr-19 07:32N 36°23' E 025°26'0 0.0
2015-Apr-19 06:29N 36°23' E 025°26'0 0.0
2015-Apr-19 05:29N 36°23' E 025°26'0 0.0
2015-Apr-19 04:29N 36°23' E 025°26'0 0.0
2015-Apr-19 02:29N 36°23' E 025°26'0 0.0
2015-Apr-19 01:29N 36°23' E 025°26'0 0.0
2015-Apr-19 00:26N 36°23' E 025°26'0 0.0
2015-Apr-18 23:29N 36°23' E 025°26'0 0.0
2015-Apr-18 22:29N 36°23' E 025°26'0 0.0
2015-Apr-18 21:20N 36°23' E 025°26'0 0.0
2015-Apr-18 20:23N 36°23' E 025°26'0 0.0
2015-Apr-18 19:29N 36°23' E 025°26'0 0.0
2015-Apr-18 18:32N 36°23' E 025°26'0 0.0
2015-Apr-18 17:29N 36°23' E 025°26'0 0.0
2015-Apr-18 16:17N 36°23' E 025°26'0 0.0
2015-Apr-18 15:29N 36°23' E 025°26'0 0.0
2015-Apr-18 14:29N 36°23' E 025°26'0 0.0
2015-Apr-18 13:29N 36°23' E 025°26'0 0.0
2015-Apr-18 12:29N 36°23' E 025°26'0 0.0
2015-Apr-18 11:29N 36°23' E 025°26'1 1.2
2015-Apr-18 10:33N 36°24' E 025°25'8 7.3
2015-Apr-18 09:30N 36°32' E 025°24'9 8.9
2015-Apr-18 08:31N 36°38' E 025°31'8 8.8
2015-Apr-18 07:33N 36°45' E 025°38'8 8.3
2015-Apr-18 06:33N 36°50' E 025°46'3 1.1
2015-Apr-18 03:15N 36°50' E 025°51'2 3.4
2015-Apr-18 02:33N 36°52' E 025°51'9 8.9
2015-Apr-18 01:32N 36°57' E 026°00'  

Dump ship's entire track history